Storm Events Database

Event Details

Event Tornado
-- Scale EF0
-- Length 1 Miles
-- Width 100 Yards
State NEBRASKA
County/Area MORRILL
WFO CYS
Begin Date 06/07/2010 19:28:00 MST-7
Begin Range 5
Begin Azimuth SE
Begin Location BROADWATER
Begin Lat/Lon 41.55/-102.78
End Date 06/07/2010 19:35:00 MST-7
Deaths Direct/Indirect 0/0 (fatality details below, when available...)
Injuries Direct/Indirect 0/0
Property Damage
Crop Damage
Episode Narrative Moist southerly winds brought 50 to mid 60 degree dew points into the area. Due to so much moisture present, low status formed and lasted through the early afternoon. The stratus caused the atmosphere to remain stable through the early afternoon until the stratus began to clear out. With the moisture still present during the afternoon and a strong jet stream overhead, thunderstorms that former over the higher terrain of Southeast Wyoming began to move eastward into the panhandle. The unstable conditions also allowed thunderstorms to develop in the panhandle during the late afternoon and evening hours.
Event Narrative Spotter at this location reported seeing a tornado. No damage was reported. Estimated duration, path length and width.


All events for this episode:

Location County/Zone St. Date Time T.Z. Type Mag Dth Inj PrD CrD
Totals: 0 0 127.65K 0.01K
HARRISON SIOUX CO. NE 06/07/2010 16:16 MST-7 Hail 1.50 in. 0 0 0.00K 0.00K
HARRISON SIOUX CO. NE 06/07/2010 16:30 MST-7 Hail 1.25 in. 0 0 0.00K 0.00K
HARRISON SIOUX CO. NE 06/07/2010 16:34 MST-7 Hail 1.75 in. 0 0 0.00K 0.00K
HARRISON SIOUX CO. NE 06/07/2010 16:36 MST-7 Hail 2.75 in. 0 0 0.00K 0.00K
JODER SIOUX CO. NE 06/07/2010 16:44 MST-7 Hail 1.00 in. 0 0 0.00K 0.00K
GLEN SIOUX CO. NE 06/07/2010 17:04 MST-7 Hail 1.00 in. 0 0 0.00K 0.00K
PORTER SIOUX CO. NE 06/07/2010 17:20 MST-7 Tornado EF0 0 0 0.00K 0.00K
HEMINGFORD BOX BUTTE CO. NE 06/07/2010 17:29 MST-7 Thunderstorm Wind 65 kts. EG 0 0 0.00K 0.00K
PORTER SIOUX CO. NE 06/07/2010 17:39 MST-7 Hail 2.00 in. 0 0 0.00K 0.00K
PORTER SIOUX CO. NE 06/07/2010 17:49 MST-7 Hail 2.75 in. 0 0 0.00K 0.00K
PORTER SIOUX CO. NE 06/07/2010 17:49 MST-7 Hail 1.75 in. 0 0 0.00K 0.00K
PORTER SIOUX CO. NE 06/07/2010 17:49 MST-7 Hail 1.25 in. 0 0 0.00K 0.00K
MORRILL SCOTTS BLUFF CO. NE 06/07/2010 17:56 MST-7 Hail 1.00 in. 0 0 0.00K 0.00K
MORRILL SCOTTS BLUFF CO. NE 06/07/2010 17:56 MST-7 Hail 2.00 in. 0 0 0.25K 0.00K
PORTER SIOUX CO. NE 06/07/2010 17:56 MST-7 Hail 2.75 in. 0 0 0.00K 0.00K
MORRILL SCOTTS BLUFF CO. NE 06/07/2010 17:57 MST-7 Hail 2.75 in. 0 0 0.00K 0.00K
MORRILL SCOTTS BLUFF CO. NE 06/07/2010 17:57 MST-7 Hail 2.50 in. 0 0 0.00K 0.00K
MORRILL SCOTTS BLUFF CO. NE 06/07/2010 17:59 MST-7 Hail 4.00 in. 0 0 0.00K 0.00K
MITCHELL SCOTTS BLUFF CO. NE 06/07/2010 17:59 MST-7 Hail 2.75 in. 0 0 3.00K 0.00K
MITCHELL SCOTTS BLUFF CO. NE 06/07/2010 17:59 MST-7 Hail 1.50 in. 0 0 0.00K 0.00K
PORTER SIOUX CO. NE 06/07/2010 17:59 MST-7 Hail 3.00 in. 0 0 12.00K 0.00K
MORRILL SCOTTS BLUFF CO. NE 06/07/2010 18:00 MST-7 Hail 1.75 in. 0 0 0.00K 0.00K
MITCHELL SCOTTS BLUFF CO. NE 06/07/2010 18:00 MST-7 Hail 2.75 in. 0 0 12.00K 0.00K
MITCHELL SCOTTS BLUFF CO. NE 06/07/2010 18:00 MST-7 Hail 2.75 in. 0 0 10.00K 0.00K
PORTER SIOUX CO. NE 06/07/2010 18:00 MST-7 Hail 4.00 in. 0 0 0.00K 0.00K
MITCHELL SCOTTS BLUFF CO. NE 06/07/2010 18:00 MST-7 Hail 3.00 in. 0 0 0.40K 0.00K
MITCHELL SCOTTS BLUFF CO. NE 06/07/2010 18:00 MST-7 Hail 2.50 in. 0 0 5.00K 0.01K
PORTER SIOUX CO. NE 06/07/2010 18:00 MST-7 Hail 2.00 in. 0 0 0.00K 0.00K
MITCHELL SCOTTS BLUFF CO. NE 06/07/2010 18:04 MST-7 Hail 1.75 in. 0 0 0.00K 0.00K
MITCHELL SCOTTS BLUFF CO. NE 06/07/2010 18:06 MST-7 Hail 1.75 in. 0 0 0.00K 0.00K
MITCHELL SCOTTS BLUFF CO. NE 06/07/2010 18:06 MST-7 Hail 1.75 in. 0 0 0.00K 0.00K
(BFF)HELIG FLD SCOTS SCOTTS BLUFF CO. NE 06/07/2010 18:09 MST-7 Hail 1.75 in. 0 0 2.00K 0.00K
PORTER SIOUX CO. NE 06/07/2010 18:09 MST-7 Hail 2.00 in. 0 0 0.00K 0.00K
MITCHELL SCOTTS BLUFF CO. NE 06/07/2010 18:09 MST-7 Hail 2.00 in. 0 0 0.00K 0.00K
PORTER SIOUX CO. NE 06/07/2010 18:09 MST-7 Hail 2.75 in. 0 0 0.00K 0.00K
PORTER SIOUX CO. NE 06/07/2010 18:12 MST-7 Hail 3.00 in. 0 0 4.00K 0.00K
PORTER SIOUX CO. NE 06/07/2010 18:14 MST-7 Hail 3.00 in. 0 0 5.00K 0.00K
MITCHELL SCOTTS BLUFF CO. NE 06/07/2010 18:14 MST-7 Hail 1.75 in. 0 0 0.00K 0.00K
MITCHELL SCOTTS BLUFF CO. NE 06/07/2010 18:14 MST-7 Hail 2.75 in. 0 0 3.00K 0.00K
MITCHELL SCOTTS BLUFF CO. NE 06/07/2010 18:14 MST-7 Hail 2.00 in. 0 0 0.00K 0.00K
SCOTTSBLUFF SCOTTS BLUFF CO. NE 06/07/2010 18:19 MST-7 Hail 2.00 in. 0 0 2.00K 0.00K
SCOTTSBLUFF SCOTTS BLUFF CO. NE 06/07/2010 18:20 MST-7 Hail 1.75 in. 0 0 0.00K 0.00K
SCOTTSBLUFF SCOTTS BLUFF CO. NE 06/07/2010 18:23 MST-7 Tornado EF1 0 0 0.00K 0.00K
ALLIANCE BOX BUTTE CO. NE 06/07/2010 18:24 MST-7 Tornado EF0 0 0 0.00K 0.00K
SCOTTSBLUFF SCOTTS BLUFF CO. NE 06/07/2010 18:24 MST-7 Hail 2.50 in. 0 0 0.00K 0.00K
GERING SCOTTS BLUFF CO. NE 06/07/2010 18:25 MST-7 Tornado EF0 0 0 0.00K 0.00K
SCOTTSBLUFF ARPT SCOTTS BLUFF CO. NE 06/07/2010 18:25 MST-7 Thunderstorm Wind 63 kts. MG 0 0 0.00K 0.00K
SCOTTSBLUFF ARPT SCOTTS BLUFF CO. NE 06/07/2010 18:28 MST-7 Tornado EF0 0 0 0.00K 0.00K
SCOTTSBLUFF SCOTTS BLUFF CO. NE 06/07/2010 18:30 MST-7 Hail 1.00 in. 0 0 0.00K 0.00K
MINATARE SCOTTS BLUFF CO. NE 06/07/2010 18:32 MST-7 Funnel Cloud 0 0 0.00K 0.00K
MORRILL SCOTTS BLUFF CO. NE 06/07/2010 18:34 MST-7 Hail 2.00 in. 0 0 0.00K 0.00K
PORTER SIOUX CO. NE 06/07/2010 18:34 MST-7 Hail 2.75 in. 0 0 0.00K 0.00K
ALLIANCE BOX BUTTE CO. NE 06/07/2010 18:37 MST-7 Hail 1.75 in. 0 0 0.00K 0.00K
SCOTTSBLUFF SCOTTS BLUFF CO. NE 06/07/2010 18:39 MST-7 Hail 1.75 in. 0 0 0.00K 0.00K
MELBETA SCOTTS BLUFF CO. NE 06/07/2010 18:44 MST-7 Thunderstorm Wind 56 kts. ES 0 0 9.00K 0.00K
MC GREW SCOTTS BLUFF CO. NE 06/07/2010 18:44 MST-7 Hail 1.00 in. 0 0 0.00K 0.00K
BAYARD MORRILL CO. NE 06/07/2010 18:54 MST-7 Tornado EF1 0 0 60.00K 0.00K
PORTER SIOUX CO. NE 06/07/2010 19:21 MST-7 Flash Flood 0 0 0.00K 0.00K
BROADWATER MORRILL CO. NE 06/07/2010 19:28 MST-7 Tornado EF0 0 0 0.00K 0.00K
Totals: 0 0 127.65K 0.01K